Chembulk Westport — V7RQ7 — position and weather

sailwx.info

Track history (hours):
 
Tides and Currents Weather Stations Pressure Air Temp Water Temp Dewpoint Dewpoint Depression Visibility Wind Speed Wind Dir Waves Ship Positions

Chembulk Westport

Last reported at 2018-Aug-20 16:03 UTC. Time now 2018-Aug-20 16:18 UTC.
Position N 41°21' E 002°10'.

Length 170 m; draft 6.5 m.

Type: Ship. MMSI: 538006820.

Date/timePositionNaut miles runAvg speedWind from/ knotsBaromVisibWave heightAir tempDewpointWater temp
2018-Aug-20 16:03N 41°21' E 002°10'0 6.3
2018-Aug-20 16:01N 41°21' E 002°10'1 0.0
2018-Aug-19 12:31N 41°20' E 002°09'0 0.1
2018-Aug-19 12:31N 41°20' E 002°09'1 1.9
2018-Aug-19 12:01N 41°21' E 002°10'3 6.5
2018-Aug-19 11:31N 41°18' E 002°11'4 8.3
2018-Aug-19 11:00N 41°13' E 002°11'4 7.2
2018-Aug-19 10:31N 41°10' E 002°09'4 9.0
2018-Aug-19 10:01N 41°06' E 002°06'510.8
2018-Aug-19 09:31N 41°01' E 002°04'3 6.5
2018-Aug-19 09:00N 40°58' E 002°02'611.1
2018-Aug-19 08:30N 40°53' E 001°59'612.7
2018-Aug-19 08:00N 40°47' E 001°56'612.4
2018-Aug-19 07:31N 40°42' E 001°52'20114.1
2018-Aug-18 17:13N 37°41' W 000°04'314.6
2018-Aug-18 17:00N 37°39' W 000°06'713.8
2018-Aug-18 16:30N 37°33' W 000°12'713.9
2018-Aug-18 16:00N 37°30' W 000°19'2414.0
2018-Aug-18 14:19N 37°15' W 000°42'22313.4
2018-Aug-17 21:40N 36°00' W 005°03'215.5
2018-Aug-17 21:31N 35°60' W 005°06'815.7
2018-Aug-17 21:01N 35°59' W 005°16'815.8
2018-Aug-17 20:31N 35°58' W 005°26'714.7
2018-Aug-17 20:00N 35°55' W 005°34'1314.7
2018-Aug-17 19:08N 35°54' W 005°50'5214.6
2018-Aug-17 15:34N 35°54' W 006°54'114.3
2018-Aug-17 15:30N 35°54' W 006°55'714.6
2018-Aug-17 15:00N 35°54' W 007°05'814.6
2018-Aug-17 14:28N 35°54' W 007°14'2014.5
2018-Aug-17 13:04N 35°53' W 007°39'214.8
2018-Aug-17 12:57N 35°53' W 007°41'6714.1
2018-Aug-17 08:13N 36°02' W 009°03'614.4
2018-Aug-17 07:49N 36°06' W 009°09'514.3
2018-Aug-17 07:29N 36°09' W 009°13'714.7
2018-Aug-17 06:59N 36°14' W 009°20'714.7
2018-Aug-17 06:30N 36°19' W 009°26'7114.1
2018-Aug-17 01:28N 37°07' W 010°31'1214.9
2018-Aug-17 00:40N 37°18' W 010°36'814.4
2018-Aug-17 00:05N 37°26' W 010°41'114.5
2018-Aug-16 23:59N 37°27' W 010°41'714.8
2018-Aug-16 23:29N 37°34' W 010°45'2614.6
2018-Aug-16 21:43N 37°58' W 010°57'314.6
2018-Aug-16 21:29N 38°01' W 010°59'714.6
2018-Aug-16 21:00N 38°07' W 011°03'814.6
2018-Aug-16 20:27N 38°14' W 011°07'814.5
2018-Aug-16 19:53N 38°22' W 011°11'614.4
2018-Aug-16 19:30N 38°27' W 011°14'714.3
2018-Aug-16 19:00N 38°34' W 011°18'914.6
2018-Aug-16 18:25N 38°42' W 011°21'814.8
2018-Aug-16 17:51N 38°50' W 011°25'1214.9
2018-Aug-16 17:02N 39°01' W 011°31'  
2018-Aug-14 07:29N 49°49' W 003°53'611.8
2018-Aug-14 07:00N 49°51' W 003°45'612.6
2018-Aug-14 06:30N 49°52' W 003°36'713.1
2018-Aug-14 05:59N 49°54' W 003°25'713.7
2018-Aug-14 05:27N 49°56' W 003°14'614.6
2018-Aug-14 05:00N 49°58' W 003°05'815.5
2018-Aug-14 04:30N 49°60' W 002°53'816.4
2018-Aug-14 04:00N 50°02' W 002°41'1317.5
2018-Aug-14 03:15N 50°05' W 002°21'517.9
2018-Aug-14 02:57N 50°07' W 002°13'817.8
2018-Aug-14 02:29N 50°09' W 002°00'7912.3
2018-Aug-13 20:04N 50°29' W 000°01'1213.5
2018-Aug-13 19:12N 50°32' E 000°17'314.5
2018-Aug-13 18:59N 50°33' E 000°22'714.8
2018-Aug-13 18:30N 50°35' E 000°33'714.7
2018-Aug-13 18:00N 50°39' E 000°42'714.6
2018-Aug-13 17:31N 50°43' E 000°52'714.1
2018-Aug-13 17:00N 50°48' E 001°01'713.6
2018-Aug-13 16:30N 50°52' E 001°09'612.9
2018-Aug-13 16:00N 50°57' E 001°16'612.1
2018-Aug-13 15:30N 51°01' E 001°22'611.4
2018-Aug-13 15:00N 51°05' E 001°29'510.3
2018-Aug-13 14:30N 51°08' E 001°36'510.3
2018-Aug-13 14:00N 51°11' E 001°42'510.8
2018-Aug-13 13:30N 51°15' E 001°48'611.6
2018-Aug-13 13:00N 51°20' E 001°52'713.0
2018-Aug-13 12:30N 51°26' E 001°56'714.2
2018-Aug-13 12:00N 51°32' E 002°04'714.9
2018-Aug-13 11:30N 51°37' E 002°11'915.8
2018-Aug-13 10:55N 51°44' E 002°21'1516.1
2018-Aug-13 10:00N 51°55' E 002°37'816.0
2018-Aug-13 09:30N 52°01' E 002°46'1314.5
2018-Aug-13 08:35N 52°03' E 003°07'214.1
2018-Aug-13 08:27N 52°03' E 003°10'714.3
2018-Aug-13 07:59N 52°03' E 003°21'714.1
2018-Aug-13 07:30N 52°04' E 003°32'713.8
2018-Aug-13 07:00N 52°03' E 003°43'611.6
2018-Aug-13 06:30N 52°03' E 003°53'4 8.7
2018-Aug-13 06:00N 52°01' E 003°59'611.7
2018-Aug-13 05:30N 51°58' E 004°08'510.5
2018-Aug-13 05:00N 51°55' E 004°14'3 6.2
2018-Aug-13 04:30N 51°53' E 004°19'1 1.6
2018-Aug-13 03:59N 51°52' E 004°19'0 0.0
2018-Aug-13 03:29N 51°52' E 004°19'0 0.0
2018-Aug-13 02:59N 51°52' E 004°19'0 0.0
2018-Aug-13 02:29N 51°52' E 004°19'0 0.0
2018-Aug-13 01:59N 51°52' E 004°19'0 0.0
2018-Aug-13 01:29N 51°52' E 004°19'0 0.0
2018-Aug-13 00:59N 51°52' E 004°19'0 0.0
2018-Aug-13 00:29N 51°52' E 004°19'0 0.0
2018-Aug-12 23:59N 51°52' E 004°19'0 0.0
2018-Aug-12 23:29N 51°52' E 004°19'0 0.0
2018-Aug-12 22:59N 51°52' E 004°19'0 0.0
2018-Aug-12 22:29N 51°52' E 004°19'0 0.0
2018-Aug-12 21:59N 51°52' E 004°19'0 0.0
2018-Aug-12 21:29N 51°52' E 004°19'0 0.0
2018-Aug-12 20:59N 51°52' E 004°19'0 0.0
2018-Aug-12 20:29N 51°52' E 004°19'0 0.0
2018-Aug-12 19:59N 51°52' E 004°19'0 0.0
2018-Aug-12 19:29N 51°52' E 004°19'0 0.0
2018-Aug-12 18:59N 51°52' E 004°19'0 0.0
2018-Aug-12 18:29N 51°52' E 004°19'0 0.0
2018-Aug-12 17:59N 51°52' E 004°19'0 0.0
2018-Aug-12 17:29N 51°52' E 004°19'0 0.0
2018-Aug-12 16:59N 51°52' E 004°19'0 0.0
2018-Aug-12 16:29N 51°52' E 004°19'0 0.0
2018-Aug-12 15:59N 51°52' E 004°19'0 0.0
2018-Aug-12 15:29N 51°52' E 004°19'0 0.0
2018-Aug-12 14:59N 51°52' E 004°19'0 0.0
2018-Aug-12 14:29N 51°52' E 004°19'0 0.0
2018-Aug-12 13:59N 51°52' E 004°19'0 0.0
2018-Aug-12 13:29N 51°52' E 004°19'0 0.0
2018-Aug-12 12:59N 51°52' E 004°19'0 0.0
2018-Aug-12 12:29N 51°52' E 004°19'0 0.0
2018-Aug-12 11:59N 51°52' E 004°19'0 0.0
2018-Aug-12 11:29N 51°52' E 004°19'0 0.0
2018-Aug-12 10:59N 51°52' E 004°19'0 0.0
2018-Aug-12 10:29N 51°52' E 004°19'0 0.0
2018-Aug-12 09:59N 51°52' E 004°19'0 0.0
2018-Aug-12 09:29N 51°52' E 004°19'0 0.0
2018-Aug-12 08:59N 51°52' E 004°19'0 0.0
2018-Aug-12 08:29N 51°52' E 004°19'0 0.0
2018-Aug-12 07:59N 51°52' E 004°19'0 0.0
2018-Aug-12 07:29N 51°52' E 004°19'0 0.0
2018-Aug-12 06:59N 51°52' E 004°19'0 0.0
2018-Aug-12 06:29N 51°52' E 004°19'0 0.0
2018-Aug-12 05:59N 51°52' E 004°19'0 0.0
2018-Aug-12 05:29N 51°52' E 004°19'0 0.0
2018-Aug-12 04:59N 51°52' E 004°19'0 0.0
2018-Aug-12 04:29N 51°52' E 004°19'0 0.0
2018-Aug-12 03:59N 51°52' E 004°19'0 0.0
2018-Aug-12 03:29N 51°52' E 004°19'0 0.0
2018-Aug-12 02:59N 51°52' E 004°19'0 0.0
2018-Aug-12 02:29N 51°52' E 004°19'0 0.0
2018-Aug-12 01:59N 51°52' E 004°19'0 0.0
2018-Aug-12 01:29N 51°52' E 004°19'0 0.0
2018-Aug-12 00:59N 51°52' E 004°19'0 0.0
2018-Aug-12 00:29N 51°52' E 004°19'0 0.0
2018-Aug-11 23:59N 51°52' E 004°19'0 0.0
2018-Aug-11 23:29N 51°52' E 004°19'0 0.0
2018-Aug-11 22:59N 51°52' E 004°19'0 0.0
2018-Aug-11 22:29N 51°52' E 004°19'0 0.0
2018-Aug-11 21:59N 51°52' E 004°19'0 0.0
2018-Aug-11 21:29N 51°52' E 004°19'0 0.0
2018-Aug-11 20:59N 51°52' E 004°19'0 0.0
2018-Aug-11 20:29N 51°52' E 004°19'0 0.0
2018-Aug-11 19:59N 51°52' E 004°19'0 0.0
2018-Aug-11 19:29N 51°52' E 004°19'0 0.0
2018-Aug-11 18:59N 51°52' E 004°19'0 0.0
2018-Aug-11 18:29N 51°52' E 004°19'0 0.0
2018-Aug-11 17:59N 51°52' E 004°19'0 0.2
2018-Aug-11 17:30N 51°53' E 004°19'1 2.5
2018-Aug-11 17:00N 51°54' E 004°19'4 8.0
2018-Aug-11 16:30N 51°54' E 004°26'1 2.4
2018-Aug-11 15:58N 51°53' E 004°27'0 0.0
2018-Aug-11 15:28N 51°53' E 004°27'0 0.0
2018-Aug-11 14:58N 51°53' E 004°27'0 0.0
2018-Aug-11 14:28N 51°53' E 004°27'0 0.0
2018-Aug-11 13:58N 51°53' E 004°27'0 0.0
2018-Aug-11 13:28N 51°53' E 004°27'0 0.0
2018-Aug-11 12:58N 51°53' E 004°27'0 0.0
2018-Aug-11 12:28N 51°53' E 004°27'0 0.0
2018-Aug-11 11:58N 51°53' E 004°27'0 0.0
2018-Aug-11 11:28N 51°53' E 004°27'0 0.0
2018-Aug-11 10:58N 51°53' E 004°27'0 0.0
2018-Aug-11 10:28N 51°53' E 004°27'0 0.0
2018-Aug-11 09:58N 51°53' E 004°27'0 0.0
2018-Aug-11 09:28N 51°53' E 004°27'0 0.0
2018-Aug-11 08:58N 51°53' E 004°27'0 0.0
2018-Aug-11 08:28N 51°53' E 004°27'0 0.0
2018-Aug-11 07:58N 51°53' E 004°27'0 0.0
2018-Aug-11 07:28N 51°53' E 004°27'0 0.0
2018-Aug-11 06:58N 51°53' E 004°27'0 0.0
2018-Aug-11 06:28N 51°53' E 004°27'0 0.0
2018-Aug-11 05:58N 51°53' E 004°27'0 0.0
2018-Aug-11 05:28N 51°53' E 004°27'0 0.0
2018-Aug-11 04:58N 51°53' E 004°27'0 0.0
2018-Aug-11 04:28N 51°53' E 004°27'0 0.0
2018-Aug-11 03:58N 51°53' E 004°27'0 0.0
2018-Aug-11 03:28N 51°53' E 004°27'0 0.0
2018-Aug-11 02:58N 51°53' E 004°27'0 0.0
2018-Aug-11 02:28N 51°53' E 004°27'0 0.0
2018-Aug-11 01:58N 51°53' E 004°27'0 0.0
2018-Aug-11 01:28N 51°53' E 004°27'0 0.0
2018-Aug-11 00:58N 51°53' E 004°27'0 0.0
2018-Aug-11 00:28N 51°53' E 004°27'0 0.0
2018-Aug-10 23:58N 51°53' E 004°27'0 0.0
2018-Aug-10 23:28N 51°53' E 004°27'0 0.0
2018-Aug-10 22:58N 51°53' E 004°27'0 0.0
2018-Aug-10 22:28N 51°53' E 004°27'0 0.0
2018-Aug-10 21:58N 51°53' E 004°27'0 0.0
2018-Aug-10 21:28N 51°53' E 004°27'0 0.0
2018-Aug-10 20:58N 51°53' E 004°27'0 0.0
2018-Aug-10 20:28N 51°53' E 004°27'0 0.0
2018-Aug-10 19:58N 51°53' E 004°27'0 0.0
2018-Aug-10 19:28N 51°53' E 004°27'0 0.0
2018-Aug-10 18:58N 51°53' E 004°27'0 0.0
2018-Aug-10 18:28N 51°53' E 004°27'0 0.0
2018-Aug-10 17:58N 51°53' E 004°27'0 0.0
2018-Aug-10 17:28N 51°53' E 004°27'0 0.0
2018-Aug-10 16:58N 51°53' E 004°27'0 0.0
2018-Aug-10 16:28N 51°53' E 004°27'  
Track history (hours):
 
Tides and Currents Weather Stations Pressure Air Temp Water Temp Dewpoint Dewpoint Depression Visibility Wind Speed Wind Dir Waves Ship Positions

Chembulk Westport

Last reported at 2018-Aug-20 16:03 UTC. Time now 2018-Aug-20 16:18 UTC.
Position N 41°21' E 002°10'.

Length 170 m; draft 6.5 m.

Type: Ship. MMSI: 538006820.

Date/timePositionNaut miles runAvg speedWind from/ knotsBaromVisibWave heightAir tempDewpointWater temp
2018-Aug-20 16:03N 41°21' E 002°10'0 6.3
2018-Aug-20 16:01N 41°21' E 002°10'1 0.0
2018-Aug-19 12:31N 41°20' E 002°09'0 0.1
2018-Aug-19 12:31N 41°20' E 002°09'1 1.9
2018-Aug-19 12:01N 41°21' E 002°10'3 6.5
2018-Aug-19 11:31N 41°18' E 002°11'4 8.3
2018-Aug-19 11:00N 41°13' E 002°11'4 7.2
2018-Aug-19 10:31N 41°10' E 002°09'4 9.0
2018-Aug-19 10:01N 41°06' E 002°06'510.8
2018-Aug-19 09:31N 41°01' E 002°04'3 6.5
2018-Aug-19 09:00N 40°58' E 002°02'611.1
2018-Aug-19 08:30N 40°53' E 001°59'612.7
2018-Aug-19 08:00N 40°47' E 001°56'612.4
2018-Aug-19 07:31N 40°42' E 001°52'20114.1
2018-Aug-18 17:13N 37°41' W 000°04'314.6
2018-Aug-18 17:00N 37°39' W 000°06'713.8
2018-Aug-18 16:30N 37°33' W 000°12'713.9
2018-Aug-18 16:00N 37°30' W 000°19'2414.0
2018-Aug-18 14:19N 37°15' W 000°42'22313.4
2018-Aug-17 21:40N 36°00' W 005°03'215.5
2018-Aug-17 21:31N 35°60' W 005°06'815.7
2018-Aug-17 21:01N 35°59' W 005°16'815.8
2018-Aug-17 20:31N 35°58' W 005°26'714.7
2018-Aug-17 20:00N 35°55' W 005°34'1314.7
2018-Aug-17 19:08N 35°54' W 005°50'5214.6
2018-Aug-17 15:34N 35°54' W 006°54'114.3
2018-Aug-17 15:30N 35°54' W 006°55'714.6
2018-Aug-17 15:00N 35°54' W 007°05'814.6
2018-Aug-17 14:28N 35°54' W 007°14'2014.5
2018-Aug-17 13:04N 35°53' W 007°39'214.8
2018-Aug-17 12:57N 35°53' W 007°41'6714.1
2018-Aug-17 08:13N 36°02' W 009°03'614.4
2018-Aug-17 07:49N 36°06' W 009°09'514.3
2018-Aug-17 07:29N 36°09' W 009°13'714.7
2018-Aug-17 06:59N 36°14' W 009°20'714.7
2018-Aug-17 06:30N 36°19' W 009°26'7114.1
2018-Aug-17 01:28N 37°07' W 010°31'1214.9
2018-Aug-17 00:40N 37°18' W 010°36'814.4
2018-Aug-17 00:05N 37°26' W 010°41'114.5
2018-Aug-16 23:59N 37°27' W 010°41'714.8
2018-Aug-16 23:29N 37°34' W 010°45'2614.6
2018-Aug-16 21:43N 37°58' W 010°57'314.6
2018-Aug-16 21:29N 38°01' W 010°59'714.6
2018-Aug-16 21:00N 38°07' W 011°03'814.6
2018-Aug-16 20:27N 38°14' W 011°07'814.5
2018-Aug-16 19:53N 38°22' W 011°11'614.4
2018-Aug-16 19:30N 38°27' W 011°14'714.3
2018-Aug-16 19:00N 38°34' W 011°18'914.6
2018-Aug-16 18:25N 38°42' W 011°21'814.8
2018-Aug-16 17:51N 38°50' W 011°25'1214.9
2018-Aug-16 17:02N 39°01' W 011°31'  
2018-Aug-14 07:29N 49°49' W 003°53'611.8
2018-Aug-14 07:00N 49°51' W 003°45'612.6
2018-Aug-14 06:30N 49°52' W 003°36'713.1
2018-Aug-14 05:59N 49°54' W 003°25'713.7
2018-Aug-14 05:27N 49°56' W 003°14'614.6
2018-Aug-14 05:00N 49°58' W 003°05'815.5
2018-Aug-14 04:30N 49°60' W 002°53'816.4
2018-Aug-14 04:00N 50°02' W 002°41'1317.5
2018-Aug-14 03:15N 50°05' W 002°21'517.9
2018-Aug-14 02:57N 50°07' W 002°13'817.8
2018-Aug-14 02:29N 50°09' W 002°00'7912.3
2018-Aug-13 20:04N 50°29' W 000°01'1213.5
2018-Aug-13 19:12N 50°32' E 000°17'314.5
2018-Aug-13 18:59N 50°33' E 000°22'714.8
2018-Aug-13 18:30N 50°35' E 000°33'714.7
2018-Aug-13 18:00N 50°39' E 000°42'714.6
2018-Aug-13 17:31N 50°43' E 000°52'714.1
2018-Aug-13 17:00N 50°48' E 001°01'713.6
2018-Aug-13 16:30N 50°52' E 001°09'612.9
2018-Aug-13 16:00N 50°57' E 001°16'612.1
2018-Aug-13 15:30N 51°01' E 001°22'611.4
2018-Aug-13 15:00N 51°05' E 001°29'510.3
2018-Aug-13 14:30N 51°08' E 001°36'510.3
2018-Aug-13 14:00N 51°11' E 001°42'510.8
2018-Aug-13 13:30N 51°15' E 001°48'611.6
2018-Aug-13 13:00N 51°20' E 001°52'713.0
2018-Aug-13 12:30N 51°26' E 001°56'714.2
2018-Aug-13 12:00N 51°32' E 002°04'714.9
2018-Aug-13 11:30N 51°37' E 002°11'915.8
2018-Aug-13 10:55N 51°44' E 002°21'1516.1
2018-Aug-13 10:00N 51°55' E 002°37'816.0
2018-Aug-13 09:30N 52°01' E 002°46'1314.5
2018-Aug-13 08:35N 52°03' E 003°07'214.1
2018-Aug-13 08:27N 52°03' E 003°10'714.3
2018-Aug-13 07:59N 52°03' E 003°21'714.1
2018-Aug-13 07:30N 52°04' E 003°32'713.8
2018-Aug-13 07:00N 52°03' E 003°43'611.6
2018-Aug-13 06:30N 52°03' E 003°53'4 8.7
2018-Aug-13 06:00N 52°01' E 003°59'611.7
2018-Aug-13 05:30N 51°58' E 004°08'510.5
2018-Aug-13 05:00N 51°55' E 004°14'3 6.2
2018-Aug-13 04:30N 51°53' E 004°19'1 1.6
2018-Aug-13 03:59N 51°52' E 004°19'0 0.0
2018-Aug-13 03:29N 51°52' E 004°19'0 0.0
2018-Aug-13 02:59N 51°52' E 004°19'0 0.0
2018-Aug-13 02:29N 51°52' E 004°19'0 0.0
2018-Aug-13 01:59N 51°52' E 004°19'0 0.0
2018-Aug-13 01:29N 51°52' E 004°19'0 0.0
2018-Aug-13 00:59N 51°52' E 004°19'0 0.0
2018-Aug-13 00:29N 51°52' E 004°19'0 0.0
2018-Aug-12 23:59N 51°52' E 004°19'0 0.0
2018-Aug-12 23:29N 51°52' E 004°19'0 0.0
2018-Aug-12 22:59N 51°52' E 004°19'0 0.0
2018-Aug-12 22:29N 51°52' E 004°19'0 0.0
2018-Aug-12 21:59N 51°52' E 004°19'0 0.0
2018-Aug-12 21:29N 51°52' E 004°19'0 0.0
2018-Aug-12 20:59N 51°52' E 004°19'0 0.0
2018-Aug-12 20:29N 51°52' E 004°19'0 0.0
2018-Aug-12 19:59N 51°52' E 004°19'0 0.0
2018-Aug-12 19:29N 51°52' E 004°19'0 0.0
2018-Aug-12 18:59N 51°52' E 004°19'0 0.0
2018-Aug-12 18:29N 51°52' E 004°19'0 0.0
2018-Aug-12 17:59N 51°52' E 004°19'0 0.0
2018-Aug-12 17:29N 51°52' E 004°19'0 0.0
2018-Aug-12 16:59N 51°52' E 004°19'0 0.0
2018-Aug-12 16:29N 51°52' E 004°19'0 0.0
2018-Aug-12 15:59N 51°52' E 004°19'0 0.0
2018-Aug-12 15:29N 51°52' E 004°19'0 0.0
2018-Aug-12 14:59N 51°52' E 004°19'0 0.0
2018-Aug-12 14:29N 51°52' E 004°19'0 0.0
2018-Aug-12 13:59N 51°52' E 004°19'0 0.0
2018-Aug-12 13:29N 51°52' E 004°19'0 0.0
2018-Aug-12 12:59N 51°52' E 004°19'0 0.0
2018-Aug-12 12:29N 51°52' E 004°19'0 0.0
2018-Aug-12 11:59N 51°52' E 004°19'0 0.0
2018-Aug-12 11:29N 51°52' E 004°19'0 0.0
2018-Aug-12 10:59N 51°52' E 004°19'0 0.0
2018-Aug-12 10:29N 51°52' E 004°19'0 0.0
2018-Aug-12 09:59N 51°52' E 004°19'0 0.0
2018-Aug-12 09:29N 51°52' E 004°19'0 0.0
2018-Aug-12 08:59N 51°52' E 004°19'0 0.0
2018-Aug-12 08:29N 51°52' E 004°19'0 0.0
2018-Aug-12 07:59N 51°52' E 004°19'0 0.0
2018-Aug-12 07:29N 51°52' E 004°19'0 0.0
2018-Aug-12 06:59N 51°52' E 004°19'0 0.0
2018-Aug-12 06:29N 51°52' E 004°19'0 0.0
2018-Aug-12 05:59N 51°52' E 004°19'0 0.0
2018-Aug-12 05:29N 51°52' E 004°19'0 0.0
2018-Aug-12 04:59N 51°52' E 004°19'0 0.0
2018-Aug-12 04:29N 51°52' E 004°19'0 0.0
2018-Aug-12 03:59N 51°52' E 004°19'0 0.0
2018-Aug-12 03:29N 51°52' E 004°19'0 0.0
2018-Aug-12 02:59N 51°52' E 004°19'0 0.0
2018-Aug-12 02:29N 51°52' E 004°19'0 0.0
2018-Aug-12 01:59N 51°52' E 004°19'0 0.0
2018-Aug-12 01:29N 51°52' E 004°19'0 0.0
2018-Aug-12 00:59N 51°52' E 004°19'0 0.0
2018-Aug-12 00:29N 51°52' E 004°19'0 0.0
2018-Aug-11 23:59N 51°52' E 004°19'0 0.0
2018-Aug-11 23:29N 51°52' E 004°19'0 0.0
2018-Aug-11 22:59N 51°52' E 004°19'0 0.0
2018-Aug-11 22:29N 51°52' E 004°19'0 0.0
2018-Aug-11 21:59N 51°52' E 004°19'0 0.0
2018-Aug-11 21:29N 51°52' E 004°19'0 0.0
2018-Aug-11 20:59N 51°52' E 004°19'0 0.0
2018-Aug-11 20:29N 51°52' E 004°19'0 0.0
2018-Aug-11 19:59N 51°52' E 004°19'0 0.0
2018-Aug-11 19:29N 51°52' E 004°19'0 0.0
2018-Aug-11 18:59N 51°52' E 004°19'0 0.0
2018-Aug-11 18:29N 51°52' E 004°19'0 0.0
2018-Aug-11 17:59N 51°52' E 004°19'0 0.2
2018-Aug-11 17:30N 51°53' E 004°19'1 2.5
2018-Aug-11 17:00N 51°54' E 004°19'4 8.0
2018-Aug-11 16:30N 51°54' E 004°26'1 2.4
2018-Aug-11 15:58N 51°53' E 004°27'0 0.0
2018-Aug-11 15:28N 51°53' E 004°27'0 0.0
2018-Aug-11 14:58N 51°53' E 004°27'0 0.0
2018-Aug-11 14:28N 51°53' E 004°27'0 0.0
2018-Aug-11 13:58N 51°53' E 004°27'0 0.0
2018-Aug-11 13:28N 51°53' E 004°27'0 0.0
2018-Aug-11 12:58N 51°53' E 004°27'0 0.0
2018-Aug-11 12:28N 51°53' E 004°27'0 0.0
2018-Aug-11 11:58N 51°53' E 004°27'0 0.0
2018-Aug-11 11:28N 51°53' E 004°27'0 0.0
2018-Aug-11 10:58N 51°53' E 004°27'0 0.0
2018-Aug-11 10:28N 51°53' E 004°27'0 0.0
2018-Aug-11 09:58N 51°53' E 004°27'0 0.0
2018-Aug-11 09:28N 51°53' E 004°27'0 0.0
2018-Aug-11 08:58N 51°53' E 004°27'0 0.0
2018-Aug-11 08:28N 51°53' E 004°27'0 0.0
2018-Aug-11 07:58N 51°53' E 004°27'0 0.0
2018-Aug-11 07:28N 51°53' E 004°27'0 0.0
2018-Aug-11 06:58N 51°53' E 004°27'0 0.0
2018-Aug-11 06:28N 51°53' E 004°27'0 0.0
2018-Aug-11 05:58N 51°53' E 004°27'0 0.0
2018-Aug-11 05:28N 51°53' E 004°27'0 0.0
2018-Aug-11 04:58N 51°53' E 004°27'0 0.0
2018-Aug-11 04:28N 51°53' E 004°27'0 0.0
2018-Aug-11 03:58N 51°53' E 004°27'0 0.0
2018-Aug-11 03:28N 51°53' E 004°27'0 0.0
2018-Aug-11 02:58N 51°53' E 004°27'0 0.0
2018-Aug-11 02:28N 51°53' E 004°27'0 0.0
2018-Aug-11 01:58N 51°53' E 004°27'0 0.0
2018-Aug-11 01:28N 51°53' E 004°27'0 0.0
2018-Aug-11 00:58N 51°53' E 004°27'0 0.0
2018-Aug-11 00:28N 51°53' E 004°27'0 0.0
2018-Aug-10 23:58N 51°53' E 004°27'0 0.0
2018-Aug-10 23:28N 51°53' E 004°27'0 0.0
2018-Aug-10 22:58N 51°53' E 004°27'0 0.0
2018-Aug-10 22:28N 51°53' E 004°27'0 0.0
2018-Aug-10 21:58N 51°53' E 004°27'0 0.0
2018-Aug-10 21:28N 51°53' E 004°27'0 0.0
2018-Aug-10 20:58N 51°53' E 004°27'0 0.0
2018-Aug-10 20:28N 51°53' E 004°27'0 0.0
2018-Aug-10 19:58N 51°53' E 004°27'0 0.0
2018-Aug-10 19:28N 51°53' E 004°27'0 0.0
2018-Aug-10 18:58N 51°53' E 004°27'0 0.0
2018-Aug-10 18:28N 51°53' E 004°27'0 0.0
2018-Aug-10 17:58N 51°53' E 004°27'0 0.0
2018-Aug-10 17:28N 51°53' E 004°27'0 0.0
2018-Aug-10 16:58N 51°53' E 004°27'0 0.0
2018-Aug-10 16:28N 51°53' E 004°27'  

Dump ship's entire track history